createdAt,value
2023-01-21T00:01:18.833Z,92912.28
2023-01-21T00:03:47.086Z,92914.53
2023-01-21T00:06:15.499Z,92913.69
2023-01-21T00:08:44.169Z,92925.09
2023-01-21T00:11:17.494Z,92918.50
2023-01-21T00:13:45.829Z,92919.66
2023-01-21T00:16:14.396Z,92929.56
2023-01-21T00:18:42.757Z,92927.06
2023-01-21T00:21:10.687Z,92916.22
2023-01-21T00:23:39.012Z,92905.94
2023-01-21T00:26:10.361Z,92902.03
2023-01-21T00:28:39.281Z,92890.41
2023-01-21T00:31:09.265Z,92899.91
2023-01-21T00:33:38.379Z,92899.25
2023-01-21T00:36:12.483Z,92896.19
2023-01-21T00:38:40.691Z,92882.41
2023-01-21T00:41:12.095Z,92881.28
2023-01-21T00:43:41.938Z,92884.94
2023-01-21T00:46:11.548Z,92882.69
2023-01-21T00:48:40.534Z,92900.56
2023-01-21T00:51:10.157Z,92903.31
2023-01-21T00:53:41.997Z,92891.31
2023-01-21T00:56:12.678Z,92886.03
2023-01-21T00:58:40.890Z,92900.72
2023-01-21T01:01:12.218Z,92906.25
2023-01-21T01:03:41.340Z,92903.53
2023-01-21T01:06:12.924Z,92883.88
2023-01-21T01:08:43.090Z,92896.19
2023-01-21T01:11:12.066Z,92891.88
2023-01-21T01:13:40.514Z,92891.56
2023-01-21T01:16:08.930Z,92888.00
2023-01-21T01:18:37.880Z,92890.06
2023-01-21T01:21:06.625Z,92893.28
2023-01-21T01:23:34.613Z,92880.31
2023-01-21T01:26:05.372Z,92879.88
2023-01-21T01:28:34.197Z,92877.63
2023-01-21T01:31:08.656Z,92884.00
2023-01-21T01:33:36.815Z,92889.94
2023-01-21T01:36:07.266Z,92900.84
2023-01-21T01:38:35.763Z,92895.25
2023-01-21T01:41:04.694Z,92890.88
2023-01-21T01:43:56.025Z,92878.72
2023-01-21T01:46:26.538Z,92882.53
2023-01-21T01:49:13.875Z,92881.72
2023-01-21T01:52:03.565Z,92868.53
2023-01-21T01:54:41.407Z,92861.53
2023-01-21T01:57:11.919Z,92858.50
2023-01-21T01:59:41.210Z,92868.81
2023-01-21T02:02:14.274Z,92862.22
2023-01-21T02:04:47.459Z,92862.53
2023-01-21T02:07:17.463Z,92869.03
2023-01-21T02:09:45.543Z,92867.91
2023-01-21T02:12:13.500Z,92868.09
2023-01-21T02:14:44.956Z,92874.50
2023-01-21T02:17:19.522Z,92869.56
2023-01-21T02:20:12.418Z,92858.38
2023-01-21T02:23:06.301Z,92849.56
2023-01-21T02:25:52.429Z,92849.44
2023-01-21T02:29:02.256Z,92845.22
2023-01-21T02:32:01.309Z,92829.84
2023-01-21T02:34:58.148Z,92831.25
2023-01-21T02:37:34.810Z,92838.72
2023-01-21T02:40:29.465Z,92835.50
2023-01-21T02:43:23.821Z,92832.78
2023-01-21T02:45:57.783Z,92830.25
2023-01-21T02:48:28.544Z,92828.94
2023-01-21T02:50:57.132Z,92827.38
2023-01-21T02:53:29.222Z,92823.06
2023-01-21T02:59:13.969Z,92799.38
2023-01-21T03:02:14.962Z,92808.50
2023-01-21T03:04:45.270Z,92794.94
2023-01-21T03:07:20.261Z,92796.84
2023-01-21T03:09:48.691Z,92793.06
2023-01-21T03:12:34.907Z,92781.97
2023-01-21T03:15:30.776Z,92806.31
2023-01-21T03:18:28.414Z,92804.69
2023-01-21T03:21:01.904Z,92796.50
2023-01-21T03:23:52.249Z,92793.16
2023-01-21T03:26:26.399Z,92783.66
2023-01-21T03:28:59.123Z,92775.19
2023-01-21T03:31:33.407Z,92788.16
2023-01-21T03:34:06.941Z,92774.91
2023-01-21T03:36:57.737Z,92798.84
2023-01-21T03:39:32.643Z,92784.34
2023-01-21T03:42:02.039Z,92771.25
2023-01-21T03:44:30.244Z,92768.19
2023-01-21T03:47:08.988Z,92761.06
2023-01-21T03:50:03.842Z,92763.50
2023-01-21T03:52:32.312Z,92766.03
2023-01-21T03:55:00.574Z,92757.78
2023-01-21T03:57:28.312Z,92759.97
2023-01-21T03:59:56.523Z,92745.75
2023-01-21T04:02:24.580Z,92733.41
2023-01-21T04:04:53.467Z,92737.25
2023-01-21T04:07:21.400Z,92747.13
2023-01-21T04:09:52.262Z,92741.50
2023-01-21T04:12:20.349Z,92728.66
2023-01-21T04:14:48.574Z,92739.72
2023-01-21T04:17:16.507Z,92714.28
2023-01-21T04:19:44.689Z,92716.81
2023-01-21T04:22:12.583Z,92710.13
2023-01-21T04:24:40.585Z,92719.66
2023-01-21T04:27:08.498Z,92727.03
2023-01-21T04:29:36.625Z,92737.41
2023-01-21T04:32:07.788Z,92747.41
2023-01-21T04:34:35.830Z,92725.75
2023-01-21T04:37:03.733Z,92735.31
2023-01-21T04:39:31.743Z,92728.66
2023-01-21T04:41:59.744Z,92737.94
2023-01-21T04:44:27.706Z,92750.09
2023-01-21T04:46:55.511Z,92762.13
2023-01-21T04:49:23.460Z,92751.44
2023-01-21T04:51:51.540Z,92748.53
2023-01-21T04:54:19.464Z,92746.47
2023-01-21T04:56:47.710Z,92757.47
2023-01-21T04:59:15.771Z,92757.47
2023-01-21T05:01:43.568Z,92765.47
2023-01-21T05:04:11.595Z,92761.66
2023-01-21T05:06:39.507Z,92748.03
2023-01-21T05:09:07.439Z,92747.81
2023-01-21T05:11:35.645Z,92758.09
2023-01-21T05:14:03.541Z,92780.91
2023-01-21T05:16:31.507Z,92765.25
2023-01-21T05:18:59.421Z,92767.13
2023-01-21T05:21:27.469Z,92769.16
2023-01-21T05:23:55.545Z,92754.78
2023-01-21T05:26:23.754Z,92750.25
2023-01-21T05:28:51.712Z,92775.53
2023-01-21T05:31:19.696Z,92780.88
2023-01-21T05:33:48.270Z,92775.00
2023-01-21T05:36:16.290Z,92772.59
2023-01-21T05:38:44.276Z,92780.78
2023-01-21T05:41:12.430Z,92792.81
2023-01-21T05:43:40.449Z,92796.00
2023-01-21T05:46:08.425Z,92806.94
2023-01-21T05:48:36.420Z,92801.44
2023-01-21T05:51:04.522Z,92786.53
2023-01-21T05:53:32.831Z,92795.09
2023-01-21T05:56:01.080Z,92791.69
2023-01-21T05:58:29.427Z,92788.22
2023-01-21T06:00:58.629Z,92789.69
2023-01-21T06:03:27.102Z,92795.88
2023-01-21T06:05:55.214Z,92799.81
2023-01-21T06:08:23.863Z,92795.13
2023-01-21T06:10:55.112Z,92807.19
2023-01-21T06:13:23.666Z,92811.28
2023-01-21T06:15:56.504Z,92806.38
2023-01-21T06:18:24.896Z,92813.97
2023-01-21T06:20:53.330Z,92812.19
2023-01-21T06:23:21.313Z,92813.69
2023-01-21T06:25:49.584Z,92808.41
2023-01-21T06:28:17.550Z,92816.22
2023-01-21T06:30:45.662Z,92834.69
2023-01-21T06:33:13.851Z,92829.84
2023-01-21T06:35:41.753Z,92827.50
2023-01-21T06:38:09.826Z,92840.03
2023-01-21T06:40:39.746Z,92808.44
2023-01-21T06:43:08.575Z,92811.50
2023-01-21T06:45:36.672Z,92843.56
2023-01-21T06:48:05.432Z,92836.94
2023-01-21T06:50:33.399Z,92839.41
2023-01-21T06:53:01.845Z,92841.69
2023-01-21T06:55:29.831Z,92851.69
2023-01-21T06:57:57.928Z,92861.16
2023-01-21T07:00:25.998Z,92861.66
2023-01-21T07:02:58.437Z,92861.66
2023-01-21T07:05:27.790Z,92872.84
2023-01-21T07:08:00.069Z,92866.41
2023-01-21T07:10:28.309Z,92862.94
2023-01-21T07:12:56.619Z,92876.91
2023-01-21T07:15:24.873Z,92863.63
2023-01-21T07:17:54.630Z,92870.34
2023-01-21T07:20:23.439Z,92843.97
2023-01-21T07:22:51.941Z,92857.84
2023-01-21T07:25:20.484Z,92854.31
2023-01-21T07:27:48.788Z,92858.41
2023-01-21T07:30:19.664Z,92853.09
2023-01-21T07:32:48.098Z,92845.19
2023-01-21T07:35:16.649Z,92847.56
2023-01-21T07:37:45.297Z,92852.31
2023-01-21T07:40:14.031Z,92854.41
2023-01-21T07:42:42.172Z,92855.47
2023-01-21T07:45:10.825Z,92852.22
2023-01-21T07:47:38.703Z,92856.44
2023-01-21T07:50:08.959Z,92859.94
2023-01-21T07:52:37.084Z,92849.50
2023-01-21T07:55:05.831Z,92853.09
2023-01-21T07:57:34.134Z,92851.59
2023-01-21T08:00:02.904Z,92850.41
2023-01-21T08:02:40.404Z,92873.59
2023-01-21T08:05:08.857Z,92875.50
2023-01-21T08:07:37.658Z,92870.63
2023-01-21T08:10:06.363Z,92861.53
2023-01-21T08:12:34.582Z,92867.75
2023-01-21T08:15:02.825Z,92877.44
2023-01-21T08:17:31.394Z,92877.44
2023-01-21T08:19:59.958Z,92876.13
2023-01-21T08:22:28.409Z,92875.41
2023-01-21T08:24:57.023Z,92850.81
2023-01-21T08:27:25.505Z,92868.38
2023-01-21T08:29:53.943Z,92867.25
2023-01-21T08:32:22.476Z,92858.31
2023-01-21T08:34:51.765Z,92867.50
2023-01-21T08:37:20.168Z,92870.69
2023-01-21T08:39:48.532Z,92851.28
2023-01-21T08:42:16.954Z,92853.28
2023-01-21T08:44:46.509Z,92865.47
2023-01-21T08:47:14.797Z,92850.41
2023-01-21T08:49:42.764Z,92846.16
2023-01-21T08:52:11.347Z,92862.69
2023-01-21T08:54:41.857Z,92865.22
2023-01-21T08:57:10.742Z,92881.50
2023-01-21T08:59:39.487Z,92877.97
2023-01-21T09:02:09.017Z,92881.31
2023-01-21T09:04:37.220Z,92877.38
2023-01-21T09:07:06.967Z,92886.56
2023-01-21T09:09:35.551Z,92885.44
2023-01-21T09:12:06.098Z,92882.09
2023-01-21T09:14:34.947Z,92881.97
2023-01-21T09:17:06.041Z,92891.13
2023-01-21T09:19:34.146Z,92883.00
2023-01-21T09:22:02.309Z,92867.16
2023-01-21T09:24:30.816Z,92874.03
2023-01-21T09:26:58.955Z,92878.97
2023-01-21T09:29:27.335Z,92871.72
2023-01-21T09:31:55.464Z,92873.72
2023-01-21T09:34:23.440Z,92863.25
2023-01-21T09:36:51.860Z,92857.09
2023-01-21T09:39:20.393Z,92864.97
2023-01-21T09:41:58.637Z,92853.97
2023-01-21T09:44:36.769Z,92848.63
2023-01-21T09:47:26.736Z,92853.97
2023-01-21T09:50:00.543Z,92842.22
2023-01-21T09:52:43.429Z,92831.06
2023-01-21T09:55:24.488Z,92830.69
2023-01-21T09:58:22.616Z,92832.03
2023-01-21T10:00:56.133Z,92827.53
2023-01-21T10:04:03.047Z,92829.25
2023-01-21T10:06:31.385Z,92822.84
2023-01-21T10:09:26.093Z,92806.81
2023-01-21T10:11:57.484Z,92811.53
2023-01-21T10:14:28.910Z,92811.72
2023-01-21T10:17:33.671Z,92786.72
2023-01-21T10:20:13.819Z,92792.00
2023-01-21T10:22:53.503Z,92780.88
2023-01-21T10:25:36.793Z,92775.34
2023-01-21T10:28:17.099Z,92757.75
2023-01-21T10:30:49.360Z,92760.34
2023-01-21T10:33:21.532Z,92772.25
2023-01-21T10:35:59.368Z,92776.72
2023-01-21T10:38:39.361Z,92781.47
2023-01-21T10:41:44.597Z,92768.69
2023-01-21T10:44:32.358Z,92761.44
2023-01-21T10:47:24.250Z,92768.16
2023-01-21T10:50:23.527Z,92767.94
2023-01-21T10:53:07.511Z,92761.66
2023-01-21T10:56:03.429Z,92771.91
2023-01-21T10:58:55.504Z,92763.72
2023-01-21T11:01:36.711Z,92751.84
2023-01-21T11:04:13.746Z,92754.28
2023-01-21T11:06:44.357Z,92764.56
2023-01-21T11:09:16.105Z,92767.91
2023-01-21T11:11:46.808Z,92761.28
2023-01-21T11:14:15.264Z,92742.63
2023-01-21T11:16:49.389Z,92746.25
2023-01-21T11:19:23.693Z,92749.25
2023-01-21T11:22:23.642Z,92755.00
2023-01-21T11:24:53.022Z,92757.50
2023-01-21T11:27:37.407Z,92766.34
2023-01-21T11:30:25.986Z,92753.19
2023-01-21T11:33:22.317Z,92757.34
2023-01-21T11:35:52.282Z,92750.69
2023-01-21T11:38:36.615Z,92754.00
2023-01-21T11:41:13.470Z,92760.31
2023-01-21T11:43:47.978Z,92760.09
2023-01-21T11:46:29.780Z,92764.28
2023-01-21T11:49:20.502Z,92757.69
2023-01-21T11:51:49.873Z,92763.50
2023-01-21T11:54:22.137Z,92719.66
2023-01-21T11:57:01.149Z,92768.81
2023-01-21T11:59:36.088Z,92782.63
2023-01-21T12:02:13.128Z,92785.09
2023-01-21T12:04:51.868Z,92790.81
2023-01-21T12:07:31.869Z,92798.34
2023-01-21T12:10:12.767Z,92802.22
2023-01-21T12:12:41.367Z,92802.81
2023-01-21T12:15:47.659Z,92809.28
2023-01-21T12:18:27.784Z,92796.94
2023-01-21T12:21:05.920Z,92797.19
2023-01-21T12:24:01.683Z,92790.28
2023-01-21T12:26:48.448Z,92740.22
2023-01-21T12:29:53.934Z,92770.56
2023-01-21T12:32:28.590Z,92760.72
2023-01-21T12:35:38.344Z,92765.81
2023-01-21T12:38:41.347Z,92768.41
2023-01-21T12:41:34.060Z,92800.09
2023-01-21T12:44:14.656Z,92800.59
2023-01-21T12:46:47.747Z,92807.72
2023-01-21T12:49:47.942Z,92809.25
2023-01-21T12:52:26.024Z,92808.97
2023-01-21T12:55:05.855Z,92806.56
2023-01-21T12:58:03.365Z,92811.59
2023-01-21T13:00:38.394Z,92814.72
2023-01-21T13:03:12.361Z,92821.38
2023-01-21T13:05:47.225Z,92813.69
2023-01-21T13:08:21.321Z,92829.34
2023-01-21T13:10:53.710Z,92828.50
2023-01-21T13:13:29.720Z,92820.69
2023-01-21T13:16:04.471Z,92823.22
2023-01-21T13:18:38.954Z,92814.97
2023-01-21T13:21:36.779Z,92817.41
2023-01-21T13:24:10.966Z,92817.63
2023-01-21T13:26:48.435Z,92819.78
2023-01-21T13:29:32.402Z,92821.69
2023-01-21T13:32:34.276Z,92830.72
2023-01-21T13:35:44.049Z,92835.44
2023-01-21T13:38:46.037Z,92843.31
2023-01-21T13:41:39.176Z,92852.59
2023-01-21T13:44:48.752Z,92854.22
2023-01-21T13:47:47.602Z,92852.88
2023-01-21T13:50:25.302Z,92865.56
2023-01-21T13:53:11.971Z,92874.50
2023-01-21T13:56:22.798Z,92888.47
2023-01-21T13:59:03.433Z,92875.44
2023-01-21T14:01:54.706Z,92883.69
2023-01-21T14:04:43.456Z,92871.91
2023-01-21T14:07:31.861Z,92882.78
2023-01-21T14:10:09.638Z,92893.44
2023-01-21T14:12:38.163Z,92892.88
2023-01-21T14:15:42.555Z,92892.50
2023-01-21T14:18:19.910Z,92915.28
2023-01-21T14:20:48.475Z,92903.50
2023-01-21T14:23:46.441Z,92899.53
2023-01-21T14:26:49.747Z,92902.94
2023-01-21T14:29:41.182Z,92893.22
2023-01-21T14:32:15.784Z,92893.50
2023-01-21T14:34:50.166Z,92904.59
2023-01-21T14:37:29.314Z,92915.53
2023-01-21T14:40:03.389Z,92912.09
2023-01-21T14:42:49.675Z,92920.06
2023-01-21T14:45:25.931Z,92924.16
2023-01-21T14:47:56.389Z,92920.94
2023-01-21T14:50:54.290Z,92918.53
2023-01-21T14:53:27.606Z,92922.47
2023-01-21T14:56:34.517Z,92932.78
2023-01-21T14:59:08.531Z,92948.16
2023-01-21T15:02:02.280Z,92932.69
2023-01-21T15:04:40.761Z,92954.63
2023-01-21T15:07:17.874Z,92963.78
2023-01-21T15:09:54.911Z,92953.91
2023-01-21T15:12:33.234Z,92945.50
2023-01-21T15:15:04.602Z,92957.84
2023-01-21T15:18:11.129Z,92947.34
2023-01-21T15:20:42.765Z,92946.81
2023-01-21T15:23:34.354Z,92937.84
2023-01-21T15:26:19.700Z,92942.44
2023-01-21T15:28:52.470Z,92949.13
2023-01-21T15:31:21.230Z,92947.31
2023-01-21T15:33:54.580Z,92942.53
2023-01-21T15:36:30.733Z,92941.97
2023-01-21T15:39:02.809Z,92942.16
2023-01-21T15:42:08.366Z,92955.06
2023-01-21T15:44:55.606Z,92957.06
2023-01-21T15:47:48.758Z,92955.78
2023-01-21T15:50:31.197Z,92952.34
2023-01-21T15:53:17.949Z,92953.34
2023-01-21T15:56:05.461Z,92963.91
2023-01-21T15:58:45.838Z,92974.09
2023-01-21T16:01:20.168Z,92975.88
2023-01-21T16:04:02.964Z,92974.00
2023-01-21T16:06:58.735Z,92977.78
2023-01-21T16:09:27.264Z,92974.94
2023-01-21T16:12:15.089Z,92940.97
2023-01-21T16:15:06.232Z,92984.09
2023-01-21T16:17:49.916Z,92982.78
2023-01-21T16:20:18.502Z,92974.03
2023-01-21T16:22:52.857Z,92984.31
2023-01-21T16:25:25.179Z,92989.78
2023-01-21T16:27:55.539Z,92987.41
2023-01-21T16:30:32.362Z,92986.94
2023-01-21T16:33:12.508Z,92993.41
2023-01-21T16:35:56.503Z,92988.28
2023-01-21T16:38:28.220Z,92985.69
2023-01-21T16:41:08.513Z,92994.88
2023-01-21T16:43:45.853Z,92989.06
2023-01-21T16:46:21.315Z,93000.06
2023-01-21T16:48:58.628Z,93002.72
2023-01-21T16:51:33.098Z,92995.19
2023-01-21T16:54:22.410Z,93000.00
2023-01-21T16:56:54.905Z,93000.16
2023-01-21T16:59:29.580Z,93011.38
2023-01-21T17:01:59.971Z,93011.38
2023-01-21T17:04:29.383Z,93020.19
2023-01-21T17:06:58.535Z,93010.25
2023-01-21T17:09:32.346Z,93015.19
2023-01-21T17:12:08.975Z,93015.25
2023-01-21T17:14:38.187Z,93016.41
2023-01-21T17:17:07.513Z,93022.53
2023-01-21T17:19:44.309Z,93024.28
2023-01-21T17:22:16.978Z,93028.34
2023-01-21T17:25:07.875Z,93026.63
2023-01-21T17:27:43.371Z,93033.00
2023-01-21T17:30:19.255Z,93037.59
2023-01-21T17:32:56.033Z,93030.81
2023-01-21T17:35:25.839Z,93038.16
2023-01-21T17:38:04.172Z,93028.16
2023-01-21T17:40:46.151Z,93036.03
2023-01-21T17:43:17.303Z,93033.38
2023-01-21T17:45:47.250Z,93030.31
2023-01-21T17:48:38.144Z,93038.88
2023-01-21T17:51:13.016Z,93032.50
2023-01-21T17:53:49.168Z,93044.19
2023-01-21T17:56:35.573Z,93037.91
2023-01-21T17:59:04.773Z,93056.84
2023-01-21T18:01:33.324Z,93065.38
2023-01-21T18:04:01.743Z,93053.06
2023-01-21T18:06:30.427Z,93051.78
2023-01-21T18:08:58.808Z,93052.94
2023-01-21T18:11:27.457Z,93052.22
2023-01-21T18:13:55.776Z,93057.69
2023-01-21T18:16:24.195Z,93054.06
2023-01-21T18:18:54.470Z,93054.38
2023-01-21T18:21:23.398Z,93067.16
2023-01-21T18:23:51.820Z,93056.16
2023-01-21T18:26:29.801Z,93061.84
2023-01-21T18:28:58.308Z,93056.16
2023-01-21T18:31:27.192Z,93076.47
2023-01-21T18:33:55.733Z,93083.44
2023-01-21T18:36:24.169Z,93079.25
2023-01-21T18:38:52.509Z,93079.03
2023-01-21T18:41:21.136Z,93078.47
2023-01-21T18:43:49.532Z,93084.25
2023-01-21T18:46:20.015Z,93078.19
2023-01-21T18:48:48.525Z,93083.69
2023-01-21T18:51:17.239Z,93084.75
2023-01-21T18:53:45.800Z,93093.56
2023-01-21T18:56:16.310Z,93106.91
2023-01-21T18:58:44.803Z,93103.53
2023-01-21T19:01:22.483Z,93105.94
2023-01-21T19:03:54.460Z,93121.06
2023-01-21T19:06:25.218Z,93118.16
2023-01-21T19:08:55.436Z,93127.00
2023-01-21T19:11:24.049Z,93130.09
2023-01-21T19:13:52.547Z,93118.81
2023-01-21T19:16:22.338Z,93110.13
2023-01-21T19:18:51.388Z,93119.22
2023-01-21T19:21:20.016Z,93119.56
2023-01-21T19:23:48.443Z,93133.88
2023-01-21T19:26:17.230Z,93135.88
2023-01-21T19:28:45.631Z,93133.50
2023-01-21T19:31:14.330Z,93129.31
2023-01-21T19:33:45.881Z,93122.47
2023-01-21T19:36:19.510Z,93127.78
2023-01-21T19:38:54.392Z,93121.22
2023-01-21T19:41:23.802Z,93134.03
2023-01-21T19:43:52.243Z,93130.81
2023-01-21T19:46:24.218Z,93129.69
2023-01-21T19:48:53.952Z,93118.00
2023-01-21T19:51:22.838Z,93113.75
2023-01-21T19:53:51.246Z,93117.53
2023-01-21T19:56:24.612Z,93134.53
2023-01-21T19:58:53.767Z,93142.41
2023-01-21T20:01:21.922Z,93136.47
2023-01-21T20:03:59.711Z,93138.59
2023-01-21T20:06:35.356Z,93136.00
2023-01-21T20:09:04.994Z,93128.88
2023-01-21T20:11:34.072Z,93136.09
2023-01-21T20:14:02.285Z,93129.69
2023-01-21T20:16:31.755Z,93139.72
2023-01-21T20:19:02.569Z,93145.28
2023-01-21T20:21:31.146Z,93131.16
2023-01-21T20:23:59.532Z,93138.53
2023-01-21T20:26:28.925Z,93144.72
2023-01-21T20:28:58.121Z,93144.81
2023-01-21T20:31:26.631Z,93145.38
2023-01-21T20:33:55.211Z,93143.69
2023-01-21T20:36:26.478Z,93136.28
2023-01-21T20:38:55.664Z,93140.88
2023-01-21T20:41:23.783Z,93148.84
2023-01-21T20:43:52.105Z,93144.59
2023-01-21T20:46:27.815Z,93146.91
2023-01-21T20:48:57.662Z,93158.47
2023-01-21T20:51:26.967Z,93166.78
2023-01-21T20:53:55.603Z,93166.50
2023-01-21T20:56:31.354Z,93174.72
2023-01-21T20:59:00.034Z,93164.75
2023-01-21T21:01:30.987Z,93172.13
2023-01-21T21:03:59.917Z,93185.75
2023-01-21T21:06:29.306Z,93188.41
2023-01-21T21:08:58.331Z,93191.59
2023-01-21T21:11:26.982Z,93195.97
2023-01-21T21:13:56.258Z,93189.75
2023-01-21T21:16:28.070Z,93203.91
2023-01-21T21:18:56.795Z,93208.41
2023-01-21T21:21:25.402Z,93207.69
2023-01-21T21:23:54.360Z,93207.22
2023-01-21T21:26:27.084Z,93210.41
2023-01-21T21:28:56.439Z,93207.78
2023-01-21T21:31:26.336Z,93206.72
2023-01-21T21:33:54.699Z,93201.66
2023-01-21T21:36:25.493Z,93205.03
2023-01-21T21:39:01.972Z,93200.78
2023-01-21T21:41:50.404Z,93226.16
2023-01-21T21:44:23.206Z,93232.28
2023-01-21T21:47:10.754Z,93231.31
2023-01-21T21:52:21.395Z,93237.03
2023-01-21T21:54:49.530Z,93233.50
2023-01-21T21:57:17.995Z,93232.69
2023-01-21T21:59:49.403Z,93241.84
2023-01-21T22:02:18.317Z,93241.84
2023-01-21T22:04:46.505Z,93242.31
2023-01-21T22:07:14.998Z,93244.78
2023-01-21T22:09:42.895Z,93219.63
2023-01-21T22:12:11.083Z,93232.88
2023-01-21T22:14:39.429Z,93237.34
2023-01-21T22:17:08.851Z,93220.81
2023-01-21T22:19:37.924Z,93234.97
2023-01-21T22:22:05.715Z,93229.38
2023-01-21T22:24:37.234Z,93231.69
2023-01-21T22:27:10.803Z,93230.72
2023-01-21T22:29:39.369Z,93228.75
2023-01-21T22:32:07.538Z,93244.50
2023-01-21T22:34:35.535Z,93239.34
2023-01-21T22:37:03.579Z,93253.75
2023-01-21T22:39:33.679Z,93248.88
2023-01-21T22:42:03.458Z,93259.53
2023-01-21T22:44:31.548Z,93258.53
2023-01-21T22:46:59.473Z,93249.50
2023-01-21T22:49:27.482Z,93249.50
2023-01-21T22:51:55.694Z,93250.28
2023-01-21T22:54:23.648Z,93258.25
2023-01-21T22:56:53.015Z,93260.34
2023-01-21T22:59:21.663Z,93265.41
2023-01-21T23:01:51.446Z,93258.69
2023-01-21T23:04:19.689Z,93247.16
2023-01-21T23:06:49.048Z,93261.41
2023-01-21T23:09:17.356Z,93260.84
2023-01-21T23:11:45.618Z,93282.34
2023-01-21T23:14:13.697Z,93273.34
2023-01-21T23:16:41.619Z,93274.03
2023-01-21T23:19:25.724Z,93238.69
2023-01-21T23:21:53.990Z,93259.53
2023-01-21T23:24:27.221Z,93256.16
2023-01-21T23:27:01.703Z,93166.88
2023-01-21T23:30:06.744Z,93282.22
2023-01-21T23:32:35.448Z,93254.56
2023-01-21T23:35:07.240Z,93223.16
2023-01-21T23:37:35.650Z,93232.16
2023-01-21T23:43:00.536Z,93273.09
2023-01-21T23:48:26.159Z,93271.44
2023-01-21T23:50:54.584Z,93291.94
2023-01-21T23:53:34.652Z,93318.69
2023-01-21T23:56:11.622Z,93294.09
2023-01-21T23:58:43.950Z,93326.22
